LGKR/CFU METAR and TAF weather

Enter ICAO airport designator
Station Type Date Time Source
LGKR METAR 2019/08/19 07:50 UTC NOAA

LGKR 190750Z 15005KT CAVOK 27/18 Q1015 NOSIG


Station Type Date Time Source
LGKR Decoded METAR 2019/08/19 07:50 UTC NOAA

Station name not available
Aug 19, 2019 - 03:50 AM EDT / 2019.08.19 0750 UTC
Wind: from the SSE (150 degrees) at 6 MPH (5 KT):0
Visibility: greater than 7 mile(s):0
Temperature: 80 F (27 C)
Dew Point: 64 F (18 C)
Relative Humidity: 57%
Pressure (altimeter): 29.97 in. Hg (1015 hPa)
ob: LGKR 190750Z 15005KT CAVOK 27/18 Q1015 NOSIG
cycle: 8

Station Type Date Time Source
LGKR TAF 2019/08/19 06:16 UTC NOAA

TAF LGKR 190500Z 1906/2006 VRB05KT 9999 FEW018

Example: see airport list